Time;durP1;ratioP1;P1;durP2;ratioP2;P2;SDS_P1;SDS_P2;PMS_P1;PMS_P2;Temp;Humidity;BMP_temperature;BMP_pressure;BME280_temperature;BME280_humidity;BME280_pressure;Samples;Min_cycle;Max_cycle;Signal;HPM_P1;HPM_P2
2023/05/05 04:23:56;;;;;;;8.30;3.83;;;;;;;14.18;74.92;101591.66;4988584;28;119848;-32
2023/05/05 04:26:21;;;;;;;5.72;3.28;;;;;;;14.17;75.19;101595.34;4991985;28;97419;-31
2023/05/05 04:28:47;;;;;;;7.07;4.00;;;;;;;14.11;75.33;101591.19;4991698;28;96639;-31
2023/05/05 04:31:12;;;;;;;6.85;3.88;;;;;;;14.17;74.47;101600.81;4991620;28;96828;-30
2023/05/05 04:33:37;;;;;;;7.32;3.80;;;;;;;14.10;75.24;101592.16;4991610;28;97921;-32
2023/05/05 04:36:03;;;;;;;7.97;3.90;;;;;;;14.10;75.59;101603.03;4991747;28;99122;-31
2023/05/05 04:38:28;;;;;;;7.95;4.15;;;;;;;14.08;74.50;101591.38;4992128;28;96639;-31
2023/05/05 04:40:54;;;;;;;6.25;3.58;;;;;;;14.11;75.12;101587.56;4991793;28;101688;-32
2023/05/05 04:43:19;;;;;;;8.93;3.70;;;;;;;14.10;75.08;101592.16;4991995;28;97334;-31
2023/05/05 04:45:54;;;;;;;6.88;3.60;;;;;;;14.12;76.44;101592.06;4991927;28;99283;-32
2023/05/05 04:48:19;;;;;;;8.27;3.63;;;;;;;14.12;74.88;101592.94;4990293;28;96782;-31
2023/05/05 04:50:46;;;;;;;9.25;3.85;;;;;;;14.13;74.53;101593.81;4991867;28;96804;-31
2023/05/05 04:53:11;;;;;;;9.32;4.00;;;;;;;14.11;75.47;101593.03;4989660;28;101306;-31
2023/05/05 04:55:38;;;;;;;6.55;3.85;;;;;;;14.10;75.41;101594.88;4991787;28;97347;-31
2023/05/05 04:58:03;;;;;;;7.78;4.45;;;;;;;14.13;75.03;101612.88;4990251;28;96680;-31
2023/05/05 05:00:28;;;;;;;6.50;3.97;;;;;;;14.13;74.63;101600.13;4991182;28;108318;-31
2023/05/05 05:02:54;;;;;;;6.57;4.03;;;;;;;14.13;76.71;101615.59;4991059;28;99073;-31
2023/05/05 05:05:20;;;;;;;7.10;3.97;;;;;;;14.13;75.56;101618.31;4989949;28;101015;-31
2023/05/05 05:07:45;;;;;;;8.18;4.22;;;;;;;14.13;76.49;101613.75;4994450;28;96764;-30
2023/05/05 05:10:11;;;;;;;8.60;4.18;;;;;;;14.15;76.05;101617.25;4995160;28;96760;-31
2023/05/05 05:12:36;;;;;;;7.88;4.60;;;;;;;14.13;76.09;101616.47;4994830;28;98308;-31
2023/05/05 05:15:01;;;;;;;6.68;4.57;;;;;;;14.20;75.47;101622.41;4994387;28;109528;-31
2023/05/05 05:17:28;;;;;;;10.65;4.85;;;;;;;14.21;75.46;101616.00;4994526;28;96874;-31
2023/05/05 05:19:54;;;;;;;6.97;3.85;;;;;;;14.27;75.91;101618.31;4993469;28;97053;-31
2023/05/05 05:22:20;;;;;;;10.88;4.88;;;;;;;14.33;75.56;101622.50;4993355;28;100845;-31
2023/05/05 05:24:45;;;;;;;9.35;4.47;;;;;;;14.37;74.63;101622.22;4994010;28;97837;-32
2023/05/05 05:27:11;;;;;;;9.55;4.22;;;;;;;14.41;74.65;101620.13;4994927;28;96729;-31
2023/05/05 05:29:36;;;;;;;8.80;4.90;;;;;;;14.47;74.07;101617.03;4994476;28;97444;-32
2023/05/05 05:32:01;;;;;;;9.75;4.50;;;;;;;14.52;74.68;101619.44;4994284;28;97912;-33
2023/05/05 05:34:26;;;;;;;9.32;4.53;;;;;;;14.52;74.51;101622.19;4993470;28;103559;-30
2023/05/05 05:36:52;;;;;;;9.18;4.30;;;;;;;14.58;74.14;101627.25;4994511;28;96533;-31
2023/05/05 05:39:17;;;;;;;12.38;5.13;;;;;;;14.70;74.10;101626.41;4994049;28;110827;-30
2023/05/05 05:41:42;;;;;;;7.95;4.30;;;;;;;14.79;75.31;101628.53;4993968;28;97244;-31
2023/05/05 05:44:08;;;;;;;8.98;5.53;;;;;;;14.91;74.14;101640.47;4994099;28;114076;-30
2023/05/05 05:46:33;;;;;;;9.32;5.00;;;;;;;15.01;74.54;101638.00;4993586;28;106602;-30
2023/05/05 05:48:58;;;;;;;9.98;5.38;;;;;;;15.08;73.99;101637.47;4994112;28;96776;-31
2023/05/05 05:51:23;;;;;;;7.90;4.72;;;;;;;15.05;74.69;101645.00;4993772;28;110889;-31
2023/05/05 05:53:50;;;;;;;7.90;4.88;;;;;;;14.96;75.13;101643.78;4994236;28;97978;-31
2023/05/05 05:56:16;;;;;;;8.65;4.75;;;;;;;14.94;74.06;101644.84;4994322;28;96532;-31
2023/05/05 05:58:41;;;;;;;10.15;5.22;;;;;;;15.07;73.55;101651.25;4994480;28;96788;-31
2023/05/05 06:01:06;;;;;;;11.23;5.32;;;;;;;15.15;73.40;101662.50;4993670;28;99723;-31
2023/05/05 06:03:32;;;;;;;10.43;6.00;;;;;;;15.23;73.49;101661.97;4994238;28;97359;-31
2023/05/05 06:05:58;;;;;;;7.60;4.63;;;;;;;15.23;73.68;101657.41;4993481;28;98513;-31
2023/05/05 06:08:23;;;;;;;10.48;5.35;;;;;;;15.21;73.15;101661.25;4994131;28;96776;-31
2023/05/05 06:10:48;;;;;;;11.98;5.28;;;;;;;15.20;73.71;101663.06;4993941;28;97986;-32
2023/05/05 06:13:14;;;;;;;9.30;4.90;;;;;;;15.25;73.72;101677.31;4993667;28;99276;-32
2023/05/05 06:15:39;;;;;;;10.57;5.40;;;;;;;15.44;73.22;101665.09;4993853;28;97061;-30
2023/05/05 06:18:05;;;;;;;10.13;5.32;;;;;;;15.50;73.57;101659.22;4994049;28;96754;-30
2023/05/05 06:20:30;;;;;;;7.82;4.93;;;;;;;15.54;72.94;101658.03;4993606;28;99547;-31
2023/05/05 06:22:55;;;;;;;8.32;4.43;;;;;;;15.57;73.72;101666.00;4994509;28;97474;-31
2023/05/05 06:25:21;;;;;;;9.60;5.10;;;;;;;15.58;73.46;101664.16;4991345;28;113885;-31
2023/05/05 06:27:46;;;;;;;10.23;4.85;;;;;;;15.57;73.33;101670.59;4993943;28;96805;-31
2023/05/05 06:30:13;;;;;;;7.78;4.72;;;;;;;15.57;74.21;101674.19;4992737;28;99672;-31
2023/05/05 06:32:38;;;;;;;8.43;4.53;;;;;;;15.55;73.33;101673.44;4992089;28;100949;-31
2023/05/05 06:35:04;;;;;;;9.02;5.05;;;;;;;15.67;74.21;101685.34;4993819;28;96544;-31
2023/05/05 06:37:30;;;;;;;8.68;5.10;;;;;;;15.92;72.65;101681.78;4993400;28;96830;-32
2023/05/05 06:39:55;;;;;;;7.43;4.10;;;;;;;16.13;73.23;101680.25;4993771;28;97534;-30
2023/05/05 06:42:21;;;;;;;9.73;4.18;;;;;;;16.29;72.39;101679.19;4993208;28;98606;-31
2023/05/05 06:44:46;;;;;;;8.95;4.75;;;;;;;16.44;71.92;101683.50;4992464;28;96537;-31
2023/05/05 06:47:11;;;;;;;8.95;5.18;;;;;;;16.65;70.58;101691.16;4993522;28;107219;-32
2023/05/05 06:49:36;;;;;;;7.57;4.60;;;;;;;16.80;70.41;101684.56;4992553;28;112610;-30
2023/05/05 06:52:02;;;;;;;10.50;4.65;;;;;;;16.96;70.00;101679.69;4993487;28;97240;-31
2023/05/05 06:54:27;;;;;;;10.20;4.22;;;;;;;17.18;69.89;101686.28;4991442;28;96526;-30
2023/05/05 06:56:52;;;;;;;7.95;4.22;;;;;;;17.29;69.44;101686.34;4993595;28;96864;-33
2023/05/05 06:59:18;;;;;;;7.05;4.10;;;;;;;17.49;69.78;101683.91;4992298;28;118321;-31
2023/05/05 07:01:43;;;;;;;7.72;3.85;;;;;;;17.61;68.94;101680.22;4993339;28;97448;-31
2023/05/05 07:04:09;;;;;;;8.38;4.45;;;;;;;17.56;68.41;101694.28;4993362;28;96516;-31
2023/05/05 07:06:34;;;;;;;6.63;3.78;;;;;;;17.44;69.64;101683.41;4993178;28;96809;-34
2023/05/05 07:08:59;;;;;;;7.90;3.85;;;;;;;17.56;68.79;101672.34;4992793;28;99276;-31
2023/05/05 07:11:25;;;;;;;5.72;3.50;;;;;;;17.85;68.39;101671.97;4993183;28;99103;-30
2023/05/05 07:13:50;;;;;;;6.97;3.55;;;;;;;18.01;68.19;101664.28;4993218;28;96480;-32
2023/05/05 07:16:15;;;;;;;7.03;3.65;;;;;;;18.18;67.31;101676.63;4993078;28;100895;-30
2023/05/05 07:18:41;;;;;;;7.05;3.90;;;;;;;18.23;66.67;101670.78;4992265;28;99267;-30
2023/05/05 07:21:06;;;;;;;5.93;3.60;;;;;;;18.04;67.64;101682.34;4992437;28;100685;-31
2023/05/05 07:23:32;;;;;;;6.30;3.67;;;;;;;17.98;67.08;101680.97;4992732;28;96753;-31
2023/05/05 07:25:58;;;;;;;7.78;3.40;;;;;;;17.93;67.48;101683.22;4991157;28;96661;-31
2023/05/05 07:28:23;;;;;;;7.30;4.05;;;;;;;17.77;68.37;101690.88;4991046;28;101288;-31
2023/05/05 07:30:49;;;;;;;9.07;4.72;;;;;;;17.72;68.33;101693.97;4991766;28;99147;-31
2023/05/05 07:33:17;;;;;;;5.57;3.45;;;;;;;17.64;68.81;101688.22;4991362;28;96752;-31
2023/05/05 07:35:42;;;;;;;6.40;4.00;;;;;;;17.61;68.94;101692.06;4975581;28;96789;-31
2023/05/05 07:38:08;;;;;;;7.53;3.35;;;;;;;17.58;68.58;101689.56;4992681;28;97456;-30
2023/05/05 07:40:33;;;;;;;6.32;3.38;;;;;;;17.59;69.00;101701.38;4992545;28;103031;-30
2023/05/05 07:42:58;;;;;;;8.18;3.28;;;;;;;17.56;68.67;101693.41;4992042;28;96653;-32
2023/05/05 07:45:24;;;;;;;5.40;2.53;;;;;;;17.55;69.13;101697.16;4992589;28;96803;-30
2023/05/05 07:47:49;;;;;;;6.80;2.58;;;;;;;17.54;68.68;101696.28;4992534;28;97948;-30
2023/05/05 07:50:15;;;;;;;5.55;2.75;;;;;;;17.50;68.40;101716.69;4992438;28;97791;-32
2023/05/05 07:52:40;;;;;;;6.68;2.85;;;;;;;17.40;69.07;101702.81;4992684;28;96434;-31
2023/05/05 07:55:05;;;;;;;7.18;2.50;;;;;;;17.40;68.71;101712.91;4992444;28;96843;-31
2023/05/05 07:57:31;;;;;;;3.97;2.65;;;;;;;17.31;69.25;101706.25;4992355;28;97461;-32
2023/05/05 07:59:56;;;;;;;3.45;1.98;;;;;;;17.31;68.72;101705.41;4992134;28;98016;-30
2023/05/05 08:02:22;;;;;;;5.68;2.47;;;;;;;17.30;68.66;101699.03;4991641;28;111145;-31
2023/05/05 08:04:47;;;;;;;4.82;1.90;;;;;;;17.28;68.52;101701.03;4991986;28;103759;-31
2023/05/05 08:07:12;;;;;;;4.55;2.00;;;;;;;17.26;68.75;101689.31;4991814;28;97626;-32
2023/05/05 08:09:38;;;;;;;3.72;2.35;;;;;;;17.31;69.28;101708.13;4991968;28;99194;-31
2023/05/05 08:12:03;;;;;;;3.35;2.25;;;;;;;17.35;69.28;101712.38;4992302;28;104082;-31
2023/05/05 08:14:29;;;;;;;4.20;2.33;;;;;;;17.39;68.76;101719.38;4992011;28;96829;-32
2023/05/05 08:16:55;;;;;;;3.67;1.98;;;;;;;17.41;68.45;101711.91;4992026;28;99253;-31
2023/05/05 08:19:21;;;;;;;3.95;1.55;;;;;;;17.43;67.92;101720.88;4991838;28;98880;-32
2023/05/05 08:21:46;;;;;;;3.58;1.85;;;;;;;17.44;67.74;101725.34;4991998;28;97270;-31
2023/05/05 08:24:12;;;;;;;4.75;2.25;;;;;;;17.44;67.64;101724.50;4991716;28;105324;-31
2023/05/05 08:26:38;;;;;;;6.13;1.80;;;;;;;17.42;67.52;101719.13;4991785;28;102480;-33
2023/05/05 08:29:03;;;;;;;3.28;1.70;;;;;;;17.40;67.41;101719.25;4990176;28;100998;-31
2023/05/05 08:31:32;;;;;;;5.28;1.83;;;;;;;17.43;67.05;101717.28;4991528;28;96741;-31
2023/05/05 08:33:57;;;;;;;3.58;1.77;;;;;;;17.43;67.69;101725.50;4992125;28;96844;-30
2023/05/05 08:36:23;;;;;;;4.65;1.98;;;;;;;17.38;67.72;101721.25;4992156;28;97146;-32
2023/05/05 08:38:49;;;;;;;4.65;1.88;;;;;;;17.40;67.55;101719.25;4991859;28;97822;-30
2023/05/05 08:41:18;;;;;;;3.08;1.67;;;;;;;17.41;67.88;101725.59;4992287;28;96735;-32
2023/05/05 08:43:45;;;;;;;4.70;1.70;;;;;;;17.40;67.83;101730.22;4993713;28;96829;-32
2023/05/05 08:46:11;;;;;;;3.90;1.80;;;;;;;17.38;67.62;101728.59;4995279;28;97953;-31
2023/05/05 08:48:40;;;;;;;4.07;1.85;;;;;;;17.29;67.88;101737.50;4995606;28;97762;-31
2023/05/05 08:51:07;;;;;;;3.90;1.65;;;;;;;17.23;69.05;101738.81;4993929;28;96616;-31
2023/05/05 08:53:45;;;;;;;4.60;2.35;;;;;;;17.16;69.51;101737.53;4994413;28;96849;-32
2023/05/05 08:56:12;;;;;;;3.35;1.83;;;;;;;17.10;70.32;101735.28;4994491;28;97468;-31
2023/05/05 08:58:39;;;;;;;4.78;2.13;;;;;;;17.06;70.91;101729.13;4993289;28;101015;-33
2023/05/05 09:01:05;;;;;;;9.70;2.58;;;;;;;17.04;70.79;101728.41;4995135;28;96642;-31
2023/05/05 09:03:31;;;;;;;6.03;2.72;;;;;;;17.03;70.89;101739.47;4995123;28;96724;-32
2023/05/05 09:05:56;;;;;;;3.42;1.83;;;;;;;17.02;72.26;101745.91;4995135;28;97296;-31
2023/05/05 09:08:22;;;;;;;3.08;1.88;;;;;;;17.04;71.08;101741.19;4994684;28;99151;-31
2023/05/05 09:10:50;;;;;;;5.22;1.63;;;;;;;17.01;72.24;101736.81;4994969;28;96640;-30
2023/05/05 09:13:15;;;;;;;3.08;1.60;;;;;;;17.02;72.99;101741.31;4994091;28;96712;-32
2023/05/05 09:15:41;;;;;;;3.30;1.60;;;;;;;16.95;71.29;101737.28;4994885;28;97977;-30
2023/05/05 09:18:08;;;;;;;4.47;1.90;;;;;;;16.99;70.94;101741.53;4994683;28;99320;-32
2023/05/05 09:20:35;;;;;;;4.75;1.90;;;;;;;17.05;71.72;101742.97;4993094;28;96619;-31
2023/05/05 09:23:08;;;;;;;3.00;1.65;;;;;;;17.05;72.02;101737.47;4993254;28;96856;-31
2023/05/05 09:25:33;;;;;;;5.28;2.03;;;;;;;17.08;70.87;101737.25;4993278;28;100816;-31
2023/05/05 09:28:07;;;;;;;6.47;1.95;;;;;;;17.09;71.61;101742.63;4994506;28;99138;-31
2023/05/05 09:30:34;;;;;;;4.13;2.10;;;;;;;17.08;72.42;101753.66;4992989;28;97010;-31
2023/05/05 09:33:01;;;;;;;5.45;2.42;;;;;;;16.98;71.64;101765.31;4993318;28;96805;-31
2023/05/05 09:35:26;;;;;;;4.00;2.33;;;;;;;16.91;72.52;101764.00;4994318;28;98945;-31
2023/05/05 09:37:51;;;;;;;4.15;1.63;;;;;;;16.84;72.55;101762.72;4994763;28;97369;-33
2023/05/05 09:40:18;;;;;;;1.67;1.30;;;;;;;16.79;71.74;101770.38;4994578;28;96628;-31
2023/05/05 09:42:43;;;;;;;2.42;1.25;;;;;;;16.78;71.83;101774.09;4993237;28;96826;-31
2023/05/05 09:45:18;;;;;;;3.38;1.10;;;;;;;16.72;71.97;101777.25;4993810;28;99217;-31
2023/05/05 09:47:45;;;;;;;2.08;0.98;;;;;;;16.70;71.85;101776.50;4994148;28;99253;-31
2023/05/05 09:50:14;;;;;;;1.10;0.65;;;;;;;16.62;72.56;101759.78;4992763;28;96710;-30
2023/05/05 09:52:40;;;;;;;2.67;1.00;;;;;;;16.54;73.34;101750.25;4992445;28;96846;-31
2023/05/05 09:55:16;;;;;;;3.15;0.70;;;;;;;16.53;73.30;101742.16;4992706;28;100800;-31
2023/05/05 09:57:42;;;;;;;6.53;0.90;;;;;;;16.43;72.95;101750.16;4994039;28;99189;-30
2023/05/05 10:00:09;;;;;;;3.08;1.40;;;;;;;16.46;72.84;101752.66;4992806;28;96714;-30
2023/05/05 10:02:36;;;;;;;2.55;1.27;;;;;;;16.43;73.61;101757.50;4994698;28;96825;-32
2023/05/05 10:05:15;;;;;;;3.13;1.55;;;;;;;16.34;75.53;101759.88;4992520;28;101218;-31
2023/05/05 10:07:43;;;;;;;3.25;1.33;;;;;;;16.30;74.00;101757.47;4992719;28;101142;-31
2023/05/05 10:10:12;;;;;;;1.42;0.93;;;;;;;16.32;75.01;101752.78;4993616;28;96662;-32
2023/05/05 10:12:38;;;;;;;2.95;0.90;;;;;;;16.29;74.58;101751.13;4992749;28;96789;-31
2023/05/05 10:15:07;;;;;;;1.90;0.90;;;;;;;16.31;75.40;101751.03;4994052;28;97895;-30
2023/05/05 10:17:45;;;;;;;2.33;1.00;;;;;;;16.33;74.55;101749.06;4992360;28;101803;-32
2023/05/05 10:20:12;;;;;;;5.30;1.15;;;;;;;16.30;74.35;101750.16;4993866;28;96578;-31
2023/05/05 10:22:38;;;;;;;2.67;1.20;;;;;;;16.31;75.16;101751.03;4992586;28;96827;-31
2023/05/05 10:25:12;;;;;;;2.38;1.15;;;;;;;16.35;75.41;101758.91;4992030;28;101386;-31
2023/05/05 10:27:48;;;;;;;1.70;1.00;;;;;;;16.34;75.52;101765.34;4993883;28;99130;-31
2023/05/05 10:30:23;;;;;;;3.75;1.38;;;;;;;16.31;75.71;101765.56;4992005;28;96821;-31
2023/05/05 10:33:04;;;;;;;2.60;1.17;;;;;;;16.30;77.47;101772.03;4992369;28;96674;-30
2023/05/05 10:35:31;;;;;;;1.25;1.08;;;;;;;16.27;76.11;101774.09;4991773;28;101026;-31
2023/05/05 10:37:58;;;;;;;3.00;1.20;;;;;;;16.18;77.41;101761.94;4992156;28;98801;-32
2023/05/05 10:40:24;;;;;;;2.92;1.40;;;;;;;16.18;77.71;101763.81;4993770;28;96701;-31
2023/05/05 10:42:52;;;;;;;4.20;1.33;;;;;;;16.13;77.18;101751.34;4993951;28;96773;-32
2023/05/05 10:45:18;;;;;;;1.67;1.05;;;;;;;16.13;76.95;101743.13;4992020;28;101226;-31
2023/05/05 10:47:43;;;;;;;4.22;0.90;;;;;;;16.09;77.77;101738.88;4993421;28;97789;-30
2023/05/05 10:50:37;;;;;;;3.25;0.77;;;;;;;16.11;76.96;101744.22;4993451;28;96526;-32
2023/05/05 10:53:12;;;;;;;1.40;0.60;;;;;;;16.08;76.78;101748.06;4993489;28;96855;-31
2023/05/05 10:56:03;;;;;;;4.68;0.70;;;;;;;16.04;76.73;101754.75;4993479;28;98039;-31
2023/05/05 10:58:36;;;;;;;2.40;0.73;;;;;;;16.04;77.24;101765.69;4991645;28;101358;-31
2023/05/05 11:01:02;;;;;;;1.13;0.47;;;;;;;15.95;76.88;101763.56;4992659;28;96681;-32
2023/05/05 11:03:28;;;;;;;3.30;0.73;;;;;;;15.90;76.61;101765.75;4991494;28;97577;-33
2023/05/05 11:06:03;;;;;;;0.70;0.55;;;;;;;15.90;77.42;101771.22;4992744;28;98147;-32
2023/05/05 11:08:35;;;;;;;2.90;0.70;;;;;;;15.85;78.49;101770.63;4993193;28;97837;-31
2023/05/05 11:11:01;;;;;;;1.77;0.68;;;;;;;15.80;78.47;101765.53;4991651;28;96649;-31
2023/05/05 11:13:27;;;;;;;0.88;0.55;;;;;;;15.79;77.29;101766.50;4993153;28;96777;-34
2023/05/05 11:16:00;;;;;;;2.95;0.75;;;;;;;15.76;77.77;101763.97;4991650;28;100897;-31
2023/05/05 11:18:43;;;;;;;1.15;0.70;;;;;;;15.68;78.34;101753.56;4992029;28;101435;-31
2023/05/05 11:21:16;;;;;;;1.42;0.55;;;;;;;15.59;80.17;101740.53;4992905;28;96700;-31
2023/05/05 11:23:46;;;;;;;2.22;1.23;;;;;;;15.52;80.28;101731.00;4992266;28;96823;-32
2023/05/05 11:26:12;;;;;;;6.47;1.95;;;;;;;15.54;79.34;101750.00;4991997;28;97378;-31
2023/05/05 11:29:00;;;;;;;3.03;1.50;;;;;;;15.44;78.62;101752.47;4991276;28;101154;-31
2023/05/05 11:31:25;;;;;;;1.73;0.88;;;;;;;15.33;80.75;101755.06;4991336;28;96869;-31
2023/05/05 11:33:54;;;;;;;2.28;1.30;;;;;;;15.14;80.29;101744.50;4992778;28;96830;-32
2023/05/05 11:36:38;;;;;;;2.95;1.38;;;;;;;15.12;80.62;101749.19;4992508;28;96782;-31
2023/05/05 11:39:08;;;;;;;6.03;1.15;;;;;;;15.08;80.75;101733.00;4991376;28;100598;-32
2023/05/05 11:41:40;;;;;;;1.92;0.85;;;;;;;15.05;81.49;101738.66;4991365;28;96480;-31
2023/05/05 11:44:09;;;;;;;2.75;1.45;;;;;;;15.05;81.86;101755.03;4991602;28;96723;-32
2023/05/05 11:46:35;;;;;;;1.42;1.10;;;;;;;15.01;80.47;101741.69;4991011;28;100971;-32
2023/05/05 11:49:01;;;;;;;2.80;0.63;;;;;;;14.93;81.33;101747.66;4992104;28;97854;-34
2023/05/05 11:51:27;;;;;;;1.35;0.40;;;;;;;14.84;82.29;101742.81;4992142;28;96504;-31
2023/05/05 11:53:52;;;;;;;2.63;0.55;;;;;;;14.71;81.91;101742.72;4991216;28;96834;-31
2023/05/05 11:56:18;;;;;;;0.93;0.60;;;;;;;14.73;82.22;101739.88;4992410;28;97409;-31
2023/05/05 11:59:09;;;;;;;0.82;0.40;;;;;;;14.70;81.72;101732.78;4991881;28;99837;-31
2023/05/05 12:01:43;;;;;;;1.98;0.43;;;;;;;14.69;82.19;101733.78;4990995;28;96800;-32
2023/05/05 12:04:13;;;;;;;1.08;0.43;;;;;;;14.75;82.01;101744.25;4991053;28;96725;-30
2023/05/05 12:06:38;;;;;;;3.30;0.60;;;;;;;14.78;82.24;101735.03;4990880;28;101365;-31
2023/05/05 12:09:05;;;;;;;0.77;0.40;;;;;;;14.80;82.00;101733.97;4992423;28;99660;-31
2023/05/05 12:11:30;;;;;;;3.25;1.20;;;;;;;14.74;81.17;101739.78;4990815;28;96595;-32
2023/05/05 12:14:09;;;;;;;9.07;1.70;;;;;;;14.72;83.42;101744.47;4992282;28;96713;-31
2023/05/05 12:16:34;;;;;;;3.90;1.25;;;;;;;14.73;83.07;101739.88;4989962;28;101092;-31
2023/05/05 12:19:04;;;;;;;5.28;1.52;;;;;;;14.71;82.78;101737.28;4992183;28;98022;-31
2023/05/05 12:21:30;;;;;;;4.40;1.55;;;;;;;14.65;83.78;101748.56;4992213;28;96521;-32
2023/05/05 12:23:56;;;;;;;2.58;1.10;;;;;;;14.61;82.87;101752.47;4973738;28;96853;-30
2023/05/05 12:26:25;;;;;;;2.70;1.13;;;;;;;14.52;84.79;101761.22;4991966;28;98081;-33
2023/05/05 12:28:50;;;;;;;1.13;0.80;;;;;;;14.45;85.48;101761.59;4990147;28;101351;-34
2023/05/05 12:31:16;;;;;;;1.38;0.73;;;;;;;14.50;85.38;101763.16;4991462;28;96725;-30
2023/05/05 12:33:42;;;;;;;2.58;0.88;;;;;;;14.49;88.07;101756.84;4992533;28;96796;-30
2023/05/05 12:36:08;;;;;;;4.25;1.23;;;;;;;14.45;84.64;101752.53;4991955;28;98138;-31
2023/05/05 12:38:37;;;;;;;3.05;1.15;;;;;;;14.37;85.71;101763.03;4990529;28;100551;-30
2023/05/05 12:41:03;;;;;;;3.25;1.02;;;;;;;14.37;87.21;101768.50;4990041;28;97383;-30
2023/05/05 12:43:31;;;;;;;0.65;0.55;;;;;;;14.27;85.92;101764.59;4990382;28;96782;-31
2023/05/05 12:45:59;;;;;;;3.17;1.20;;;;;;;14.28;85.05;101772.69;4990410;28;99166;-31
2023/05/05 12:48:25;;;;;;;1.88;0.77;;;;;;;14.20;84.57;101773.16;4991516;28;99185;-31
2023/05/05 12:50:51;;;;;;;2.95;0.90;;;;;;;14.14;86.47;101772.66;4991634;28;96619;-30
2023/05/05 12:53:24;;;;;;;1.67;0.77;;;;;;;14.11;85.42;101773.75;4990335;28;96840;-31
2023/05/05 12:55:50;;;;;;;1.80;0.82;;;;;;;14.03;85.46;101776.91;4990168;28;101474;-31
2023/05/05 12:58:15;;;;;;;1.38;0.60;;;;;;;13.98;86.39;101780.91;4991951;28;98222;-31
2023/05/05 13:00:41;;;;;;;0.52;0.30;;;;;;;13.96;87.30;101783.69;4991728;28;96431;-30
2023/05/05 13:03:16;;;;;;;2.92;0.60;;;;;;;13.94;86.70;101774.78;4991885;28;97163;-31
2023/05/05 13:05:42;;;;;;;2.85;1.00;;;;;;;13.91;87.21;101779.53;4991257;28;98063;-32
2023/05/05 13:08:07;;;;;;;1.52;0.65;;;;;;;13.86;86.90;101777.06;4991400;28;97934;-30
2023/05/05 13:10:32;;;;;;;1.02;0.50;;;;;;;13.80;87.05;101764.72;4991692;28;96443;-32
2023/05/05 13:12:58;;;;;;;1.38;0.45;;;;;;;13.83;88.04;101762.78;4991451;28;96866;-30
2023/05/05 13:15:24;;;;;;;2.28;0.60;;;;;;;13.85;87.27;101763.53;4991231;28;99508;-30
2023/05/05 13:17:50;;;;;;;3.88;0.70;;;;;;;13.88;86.08;101774.25;4989866;28;100855;-31
2023/05/05 13:20:15;;;;;;;2.00;0.68;;;;;;;13.88;88.35;101777.88;4991568;28;96614;-31
2023/05/05 13:22:40;;;;;;;1.42;0.57;;;;;;;13.87;87.70;101764.31;4991895;28;96677;-30
2023/05/05 13:25:06;;;;;;;1.35;0.70;;;;;;;13.89;86.54;101756.94;4990062;28;114214;-30
2023/05/05 13:27:33;;;;;;;0.82;0.57;;;;;;;13.93;86.90;101745.75;4990840;28;100847;-32
2023/05/05 13:29:58;;;;;;;1.10;0.63;;;;;;;14.00;87.17;101740.81;4992396;28;97000;-31
2023/05/05 13:32:23;;;;;;;3.38;0.90;;;;;;;14.06;86.12;101745.88;4994657;28;97834;-30
2023/05/05 13:34:49;;;;;;;2.22;1.00;;;;;;;14.13;86.31;101740.94;4994356;28;99330;-32
2023/05/05 13:37:14;;;;;;;0.77;0.60;;;;;;;14.22;86.13;101729.47;4994564;28;97839;-31
2023/05/05 13:39:40;;;;;;;1.63;0.93;;;;;;;14.31;85.63;101723.44;4994491;28;96626;-31
2023/05/05 13:42:06;;;;;;;1.05;0.65;;;;;;;14.37;86.07;101733.97;4993217;28;96860;-30
2023/05/05 13:44:31;;;;;;;2.35;0.77;;;;;;;14.46;86.94;101727.03;4994491;28;97909;-30
2023/05/05 13:46:57;;;;;;;2.40;1.08;;;;;;;14.63;88.67;101723.25;4994418;28;109028;-30
2023/05/05 13:49:22;;;;;;;2.05;0.73;;;;;;;14.75;87.09;101725.16;4994186;28;96677;-31
2023/05/05 13:51:48;;;;;;;1.23;0.77;;;;;;;14.86;85.96;101725.34;4994381;28;96830;-30
2023/05/05 13:54:13;;;;;;;1.05;0.73;;;;;;;14.92;85.34;101715.00;4993465;28;99258;-30
2023/05/05 13:56:38;;;;;;;1.40;0.80;;;;;;;14.97;86.02;101721.94;4994251;28;98302;-32
2023/05/05 13:59:04;;;;;;;1.13;0.60;;;;;;;15.00;84.57;101713.53;4994135;28;96373;-30
2023/05/05 14:01:30;;;;;;;1.48;0.65;;;;;;;15.04;85.28;101715.09;4994453;28;96760;-32
2023/05/05 14:03:56;;;;;;;2.75;0.95;;;;;;;15.10;86.25;101716.53;4994305;28;98081;-30
2023/05/05 14:06:22;;;;;;;1.20;0.65;;;;;;;15.19;86.01;101709.59;4992564;28;101495;-31
2023/05/05 14:08:47;;;;;;;3.08;0.65;;;;;;;15.31;84.48;101713.34;4994234;28;96697;-30
2023/05/05 14:11:13;;;;;;;1.58;0.90;;;;;;;15.34;84.09;101718.59;4994446;28;96831;-31
2023/05/05 14:13:38;;;;;;;2.42;0.90;;;;;;;15.51;83.20;101718.31;4993697;28;99336;-30
2023/05/05 14:16:04;;;;;;;3.45;0.80;;;;;;;15.53;83.96;101721.81;4993663;28;99401;-30
2023/05/05 14:18:30;;;;;;;1.25;0.70;;;;;;;15.56;83.80;101718.00;4993672;28;96653;-31
2023/05/05 14:20:56;;;;;;;1.75;0.70;;;;;;;15.68;82.93;101714.41;4992514;28;97279;-31
2023/05/05 14:23:22;;;;;;;2.45;1.00;;;;;;;15.83;82.46;101726.19;4993043;28;97654;-30
2023/05/05 14:25:47;;;;;;;0.77;0.60;;;;;;;15.94;83.84;101723.56;4993491;28;98291;-30
2023/05/05 14:28:13;;;;;;;1.33;0.80;;;;;;;16.11;82.46;101726.00;4993795;28;96575;-31
2023/05/05 14:30:38;;;;;;;3.00;1.00;;;;;;;16.13;82.44;101721.25;4993233;28;96830;-30
2023/05/05 14:33:04;;;;;;;0.90;0.52;;;;;;;16.16;82.70;101727.50;4993248;28;114948;-31
2023/05/05 14:35:30;;;;;;;3.85;1.02;;;;;;;16.14;82.71;101728.50;4993755;28;99202;-30
2023/05/05 14:37:55;;;;;;;2.47;0.98;;;;;;;16.21;82.59;101726.22;4992364;28;96783;-30
2023/05/05 14:40:20;;;;;;;1.70;0.80;;;;;;;16.24;82.71;101727.84;4992536;28;96796;-31
2023/05/05 14:42:45;;;;;;;1.92;1.08;;;;;;;16.22;81.63;101724.34;4992569;28;110502;-32
2023/05/05 14:45:11;;;;;;;2.47;1.30;;;;;;;16.20;81.23;101726.31;4993423;28;103771;-30
2023/05/05 14:47:36;;;;;;;2.40;0.95;;;;;;;16.29;80.86;101722.91;4993808;28;96675;-30
2023/05/05 14:50:02;;;;;;;1.00;0.70;;;;;;;16.32;81.39;101714.50;4993291;28;96676;-31
2023/05/05 14:52:28;;;;;;;1.83;1.05;;;;;;;16.32;81.58;101707.16;4991905;28;98822;-31
2023/05/05 14:54:54;;;;;;;2.30;1.17;;;;;;;16.38;80.45;101713.19;4993246;28;99655;-31
2023/05/05 14:57:20;;;;;;;1.65;0.95;;;;;;;16.35;79.99;101701.50;4992044;28;96726;-31
2023/05/05 14:59:50;;;;;;;3.47;1.00;;;;;;;16.38;79.97;101699.53;4992111;28;96889;-30
2023/05/05 15:02:15;;;;;;;1.98;1.15;;;;;;;16.48;79.82;101704.19;4992501;28;99650;-31
2023/05/05 15:04:41;;;;;;;5.88;1.10;;;;;;;16.59;80.75;101705.25;4992947;28;99161;-31
2023/05/05 15:07:06;;;;;;;2.15;1.00;;;;;;;16.55;80.03;101701.88;4992189;28;110913;-31
2023/05/05 15:09:31;;;;;;;1.38;1.00;;;;;;;16.64;79.91;101716.78;4992757;28;103917;-32
2023/05/05 15:11:57;;;;;;;3.00;1.30;;;;;;;16.56;78.92;101709.09;4992895;28;99347;-31
2023/05/05 15:14:22;;;;;;;2.17;1.17;;;;;;;16.50;79.39;101704.97;4992689;28;98684;-33
2023/05/05 15:16:48;;;;;;;2.03;1.23;;;;;;;16.49;79.73;101705.97;4992535;28;103891;-34
2023/05/05 15:19:14;;;;;;;1.80;1.20;;;;;;;16.65;79.45;101702.97;4991731;28;96705;-33
2023/05/05 15:21:40;;;;;;;3.05;1.65;;;;;;;16.69;79.12;101709.97;4991149;28;100868;-31
2023/05/05 15:24:06;;;;;;;2.00;1.08;;;;;;;16.71;79.99;101707.13;4992604;28;97275;-32
2023/05/05 15:26:33;;;;;;;2.60;1.42;;;;;;;16.65;79.26;101694.75;4992445;28;96599;-32
2023/05/05 15:28:58;;;;;;;2.22;1.35;;;;;;;16.73;79.42;101702.38;4991552;28;96625;-32
2023/05/05 15:31:24;;;;;;;1.25;1.00;;;;;;;16.67;78.59;101698.25;4990453;28;100473;-32
2023/05/05 15:33:50;;;;;;;2.65;1.73;;;;;;;16.64;79.02;101701.22;4992740;28;97499;-32
2023/05/05 15:36:21;;;;;;;2.72;1.63;;;;;;;16.52;78.04;101688.44;4989452;28;96773;-30
2023/05/05 15:38:46;;;;;;;2.63;1.70;;;;;;;16.59;78.67;101697.06;4982088;28;96870;-31
2023/05/05 15:41:12;;;;;;;2.45;1.40;;;;;;;16.62;78.49;101696.84;4986296;28;97435;-32
2023/05/05 15:43:37;;;;;;;4.50;1.58;;;;;;;16.65;78.33;101685.66;4971926;28;97366;-34
2023/05/05 15:46:02;;;;;;;4.50;1.98;;;;;;;16.78;78.03;101689.25;4970433;28;96689;-34